sensor_id;sensor_type;location;lat;lon;timestamp;temperature;humidity
5429;DHT22;2737;52.386;9.980;2023-06-01T00:02:00;10.90;99.90
5429;DHT22;2737;52.386;9.980;2023-06-01T00:04:27;11.00;99.90
5429;DHT22;2737;52.386;9.980;2023-06-01T00:06:54;10.90;99.90
5429;DHT22;2737;52.386;9.980;2023-06-01T00:09:23;11.00;99.90
5429;DHT22;2737;52.386;9.980;2023-06-01T00:11:50;10.90;99.90
5429;DHT22;2737;52.386;9.980;2023-06-01T00:14:17;10.90;99.90
5429;DHT22;2737;52.386;9.980;2023-06-01T00:16:44;10.80;99.90
5429;DHT22;2737;52.386;9.980;2023-06-01T00:19:11;10.80;99.90
5429;DHT22;2737;52.386;9.980;2023-06-01T00:21:38;10.90;99.90
5429;DHT22;2737;52.386;9.980;2023-06-01T00:24:07;10.80;99.90
5429;DHT22;2737;52.386;9.980;2023-06-01T00:26:35;10.70;99.90
5429;DHT22;2737;52.386;9.980;2023-06-01T00:29:02;10.70;99.90
5429;DHT22;2737;52.386;9.980;2023-06-01T00:31:29;10.80;99.90
5429;DHT22;2737;52.386;9.980;2023-06-01T00:33:56;10.80;99.90
5429;DHT22;2737;52.386;9.980;2023-06-01T00:36:23;10.80;99.90
5429;DHT22;2737;52.386;9.980;2023-06-01T00:38:50;10.80;99.90
5429;DHT22;2737;52.386;9.980;2023-06-01T00:41:17;10.80;99.90
5429;DHT22;2737;52.386;9.980;2023-06-01T00:43:46;10.70;99.90
5429;DHT22;2737;52.386;9.980;2023-06-01T00:46:13;10.70;99.90
5429;DHT22;2737;52.386;9.980;2023-06-01T00:48:40;10.70;99.90
5429;DHT22;2737;52.386;9.980;2023-06-01T00:51:07;10.80;99.90
5429;DHT22;2737;52.386;9.980;2023-06-01T00:53:34;10.80;99.90
5429;DHT22;2737;52.386;9.980;2023-06-01T00:56:01;10.70;99.90
5429;DHT22;2737;52.386;9.980;2023-06-01T00:58:30;10.70;99.90
5429;DHT22;2737;52.386;9.980;2023-06-01T01:00:58;10.70;99.90
5429;DHT22;2737;52.386;9.980;2023-06-01T01:03:27;10.70;99.90
5429;DHT22;2737;52.386;9.980;2023-06-01T01:06:04;10.60;99.90
5429;DHT22;2737;52.386;9.980;2023-06-01T01:08:43;10.70;99.90
5429;DHT22;2737;52.386;9.980;2023-06-01T01:11:18;10.70;99.90
5429;DHT22;2737;52.386;9.980;2023-06-01T01:13:49;10.70;99.90
5429;DHT22;2737;52.386;9.980;2023-06-01T01:16:26;10.60;99.90
5429;DHT22;2737;52.386;9.980;2023-06-01T01:18:59;10.60;99.90
5429;DHT22;2737;52.386;9.980;2023-06-01T01:21:32;10.70;99.90
5429;DHT22;2737;52.386;9.980;2023-06-01T01:24:30;10.80;99.90
5429;DHT22;2737;52.386;9.980;2023-06-01T01:27:14;10.70;99.90
5429;DHT22;2737;52.386;9.980;2023-06-01T01:29:44;10.80;99.90
5429;DHT22;2737;52.386;9.980;2023-06-01T01:32:13;10.70;99.90
5429;DHT22;2737;52.386;9.980;2023-06-01T01:34:40;10.70;99.90
5429;DHT22;2737;52.386;9.980;2023-06-01T01:37:10;10.70;99.90
5429;DHT22;2737;52.386;9.980;2023-06-01T01:39:37;10.70;99.90
5429;DHT22;2737;52.386;9.980;2023-06-01T01:42:04;10.70;99.90
5429;DHT22;2737;52.386;9.980;2023-06-01T01:44:32;10.70;99.90
5429;DHT22;2737;52.386;9.980;2023-06-01T01:47:07;10.60;99.90
5429;DHT22;2737;52.386;9.980;2023-06-01T01:49:41;10.60;99.90
5429;DHT22;2737;52.386;9.980;2023-06-01T01:52:13;10.70;99.90
5429;DHT22;2737;52.386;9.980;2023-06-01T01:54:43;10.70;99.90
5429;DHT22;2737;52.386;9.980;2023-06-01T01:57:12;10.70;99.90
5429;DHT22;2737;52.386;9.980;2023-06-01T01:59:40;10.60;99.90
5429;DHT22;2737;52.386;9.980;2023-06-01T02:02:08;10.50;99.90
5429;DHT22;2737;52.386;9.980;2023-06-01T02:04:38;10.50;99.90
5429;DHT22;2737;52.386;9.980;2023-06-01T02:07:05;10.50;99.90
5429;DHT22;2737;52.386;9.980;2023-06-01T02:09:33;10.50;99.90
5429;DHT22;2737;52.386;9.980;2023-06-01T02:12:00;10.60;99.90
5429;DHT22;2737;52.386;9.980;2023-06-01T02:14:27;10.60;99.90
5429;DHT22;2737;52.386;9.980;2023-06-01T02:16:55;10.60;99.90
5429;DHT22;2737;52.386;9.980;2023-06-01T02:19:24;10.60;99.90
5429;DHT22;2737;52.386;9.980;2023-06-01T02:21:52;10.70;99.90
5429;DHT22;2737;52.386;9.980;2023-06-01T02:24:19;10.70;99.90
5429;DHT22;2737;52.386;9.980;2023-06-01T02:26:46;10.70;99.90
5429;DHT22;2737;52.386;9.980;2023-06-01T02:29:17;10.60;99.90
5429;DHT22;2737;52.386;9.980;2023-06-01T02:31:47;10.60;99.90
5429;DHT22;2737;52.386;9.980;2023-06-01T02:34:15;10.60;99.90
5429;DHT22;2737;52.386;9.980;2023-06-01T02:36:43;10.50;99.90
5429;DHT22;2737;52.386;9.980;2023-06-01T02:39:10;10.60;99.90
5429;DHT22;2737;52.386;9.980;2023-06-01T02:41:37;10.50;99.90
5429;DHT22;2737;52.386;9.980;2023-06-01T02:44:04;10.60;99.90
5429;DHT22;2737;52.386;9.980;2023-06-01T02:46:31;10.60;99.90
5429;DHT22;2737;52.386;9.980;2023-06-01T02:48:58;10.50;99.90
5429;DHT22;2737;52.386;9.980;2023-06-01T02:51:25;10.50;99.90
5429;DHT22;2737;52.386;9.980;2023-06-01T02:53:54;10.50;99.90
5429;DHT22;2737;52.386;9.980;2023-06-01T02:56:21;10.50;99.90
5429;DHT22;2737;52.386;9.980;2023-06-01T02:58:48;10.50;99.90
5429;DHT22;2737;52.386;9.980;2023-06-01T03:01:15;10.50;99.90
5429;DHT22;2737;52.386;9.980;2023-06-01T03:03:42;10.50;99.90
5429;DHT22;2737;52.386;9.980;2023-06-01T03:06:10;10.50;99.90
5429;DHT22;2737;52.386;9.980;2023-06-01T03:08:39;10.50;99.90
5429;DHT22;2737;52.386;9.980;2023-06-01T03:11:07;10.60;99.90
5429;DHT22;2737;52.386;9.980;2023-06-01T03:13:34;10.60;99.90
5429;DHT22;2737;52.386;9.980;2023-06-01T03:16:01;10.50;99.90
5429;DHT22;2737;52.386;9.980;2023-06-01T03:18:28;10.50;99.90
5429;DHT22;2737;52.386;9.980;2023-06-01T03:20:55;10.50;99.90
5429;DHT22;2737;52.386;9.980;2023-06-01T03:23:22;10.50;99.90
5429;DHT22;2737;52.386;9.980;2023-06-01T03:25:49;10.40;99.90
5429;DHT22;2737;52.386;9.980;2023-06-01T03:28:18;10.40;99.90
5429;DHT22;2737;52.386;9.980;2023-06-01T03:30:45;10.50;99.90
5429;DHT22;2737;52.386;9.980;2023-06-01T03:33:12;10.50;99.90
5429;DHT22;2737;52.386;9.980;2023-06-01T03:35:39;10.50;99.90
5429;DHT22;2737;52.386;9.980;2023-06-01T03:38:06;10.50;99.90
5429;DHT22;2737;52.386;9.980;2023-06-01T03:40:33;10.60;99.90
5429;DHT22;2737;52.386;9.980;2023-06-01T03:43:00;10.60;99.90
5429;DHT22;2737;52.386;9.980;2023-06-01T03:45:29;10.70;99.90
5429;DHT22;2737;52.386;9.980;2023-06-01T03:47:56;10.60;99.90
5429;DHT22;2737;52.386;9.980;2023-06-01T03:50:23;10.70;99.90
5429;DHT22;2737;52.386;9.980;2023-06-01T03:52:50;10.70;99.90
5429;DHT22;2737;52.386;9.980;2023-06-01T03:55:17;10.60;99.90
5429;DHT22;2737;52.386;9.980;2023-06-01T03:57:45;10.60;99.90
5429;DHT22;2737;52.386;9.980;2023-06-01T04:00:12;10.50;99.90
5429;DHT22;2737;52.386;9.980;2023-06-01T04:02:52;10.60;99.90
5429;DHT22;2737;52.386;9.980;2023-06-01T04:05:20;10.60;99.90
5429;DHT22;2737;52.386;9.980;2023-06-01T04:07:48;10.50;99.90
5429;DHT22;2737;52.386;9.980;2023-06-01T04:10:16;10.60;99.90
5429;DHT22;2737;52.386;9.980;2023-06-01T04:12:43;10.70;99.90
5429;DHT22;2737;52.386;9.980;2023-06-01T04:15:12;10.70;99.90
5429;DHT22;2737;52.386;9.980;2023-06-01T04:17:40;10.80;99.90
5429;DHT22;2737;52.386;9.980;2023-06-01T04:20:11;10.60;99.90
5429;DHT22;2737;52.386;9.980;2023-06-01T04:22:39;10.60;99.90
5429;DHT22;2737;52.386;9.980;2023-06-01T04:25:07;10.60;99.90
5429;DHT22;2737;52.386;9.980;2023-06-01T04:27:34;10.70;99.90
5429;DHT22;2737;52.386;9.980;2023-06-01T04:30:04;10.80;99.90
5429;DHT22;2737;52.386;9.980;2023-06-01T04:32:33;10.80;99.90
5429;DHT22;2737;52.386;9.980;2023-06-01T04:35:01;10.70;99.90
5429;DHT22;2737;52.386;9.980;2023-06-01T04:37:32;10.50;99.90
5429;DHT22;2737;52.386;9.980;2023-06-01T04:40:00;10.60;99.90
5429;DHT22;2737;52.386;9.980;2023-06-01T04:42:32;10.50;99.90
5429;DHT22;2737;52.386;9.980;2023-06-01T04:44:59;10.50;99.90
5429;DHT22;2737;52.386;9.980;2023-06-01T04:47:27;10.50;99.90
5429;DHT22;2737;52.386;9.980;2023-06-01T04:49:54;10.40;99.90
5429;DHT22;2737;52.386;9.980;2023-06-01T04:52:21;10.50;99.90
5429;DHT22;2737;52.386;9.980;2023-06-01T04:54:50;10.50;99.90
5429;DHT22;2737;52.386;9.980;2023-06-01T04:57:17;10.50;99.90
5429;DHT22;2737;52.386;9.980;2023-06-01T04:59:44;10.50;99.90
5429;DHT22;2737;52.386;9.980;2023-06-01T05:02:11;10.60;99.90
5429;DHT22;2737;52.386;9.980;2023-06-01T05:04:38;10.60;99.90
5429;DHT22;2737;52.386;9.980;2023-06-01T05:07:06;10.70;99.90
5429;DHT22;2737;52.386;9.980;2023-06-01T05:09:33;10.70;99.90
5429;DHT22;2737;52.386;9.980;2023-06-01T05:12:02;10.60;99.90
5429;DHT22;2737;52.386;9.980;2023-06-01T05:14:29;10.70;99.90
5429;DHT22;2737;52.386;9.980;2023-06-01T05:16:56;10.70;99.90
5429;DHT22;2737;52.386;9.980;2023-06-01T05:19:23;10.70;99.90
5429;DHT22;2737;52.386;9.980;2023-06-01T05:21:50;10.70;99.90
5429;DHT22;2737;52.386;9.980;2023-06-01T05:24:17;10.70;99.90
5429;DHT22;2737;52.386;9.980;2023-06-01T05:26:45;10.80;99.90
5429;DHT22;2737;52.386;9.980;2023-06-01T05:29:13;10.80;99.90
5429;DHT22;2737;52.386;9.980;2023-06-01T05:31:40;10.80;99.90
5429;DHT22;2737;52.386;9.980;2023-06-01T05:34:07;10.90;99.90
5429;DHT22;2737;52.386;9.980;2023-06-01T05:36:34;11.00;99.90
5429;DHT22;2737;52.386;9.980;2023-06-01T05:39:01;11.00;99.90
5429;DHT22;2737;52.386;9.980;2023-06-01T05:41:28;11.00;99.90
5429;DHT22;2737;52.386;9.980;2023-06-01T05:43:55;11.10;99.90
5429;DHT22;2737;52.386;9.980;2023-06-01T05:46:24;11.10;99.90
5429;DHT22;2737;52.386;9.980;2023-06-01T05:48:51;11.10;99.90
5429;DHT22;2737;52.386;9.980;2023-06-01T05:51:18;11.10;99.90
5429;DHT22;2737;52.386;9.980;2023-06-01T05:53:45;11.10;99.90
5429;DHT22;2737;52.386;9.980;2023-06-01T05:56:12;11.00;99.90
5429;DHT22;2737;52.386;9.980;2023-06-01T05:58:39;11.00;99.90
5429;DHT22;2737;52.386;9.980;2023-06-01T06:01:06;11.10;99.90
5429;DHT22;2737;52.386;9.980;2023-06-01T06:03:34;11.10;99.90
5429;DHT22;2737;52.386;9.980;2023-06-01T06:06:01;11.10;99.90
5429;DHT22;2737;52.386;9.980;2023-06-01T06:08:29;11.20;99.90
5429;DHT22;2737;52.386;9.980;2023-06-01T06:10:56;11.20;99.90
5429;DHT22;2737;52.386;9.980;2023-06-01T06:13:23;11.20;99.90
5429;DHT22;2737;52.386;9.980;2023-06-01T06:15:50;11.30;99.90
5429;DHT22;2737;52.386;9.980;2023-06-01T06:18:17;11.40;99.90
5429;DHT22;2737;52.386;9.980;2023-06-01T06:20:47;11.40;99.90
5429;DHT22;2737;52.386;9.980;2023-06-01T06:23:14;11.40;99.90
5429;DHT22;2737;52.386;9.980;2023-06-01T06:25:41;11.30;99.90
5429;DHT22;2737;52.386;9.980;2023-06-01T06:28:09;11.40;99.90
5429;DHT22;2737;52.386;9.980;2023-06-01T06:30:36;11.50;99.90
5429;DHT22;2737;52.386;9.980;2023-06-01T06:33:03;11.50;99.90
5429;DHT22;2737;52.386;9.980;2023-06-01T06:35:30;11.60;99.90
5429;DHT22;2737;52.386;9.980;2023-06-01T06:37:59;11.50;99.90
5429;DHT22;2737;52.386;9.980;2023-06-01T06:40:26;11.50;99.90
5429;DHT22;2737;52.386;9.980;2023-06-01T06:42:53;11.50;99.90
5429;DHT22;2737;52.386;9.980;2023-06-01T06:45:24;11.60;99.90
5429;DHT22;2737;52.386;9.980;2023-06-01T06:47:51;11.70;99.90
5429;DHT22;2737;52.386;9.980;2023-06-01T06:50:18;11.60;99.90
5429;DHT22;2737;52.386;9.980;2023-06-01T06:52:45;11.70;99.90
5429;DHT22;2737;52.386;9.980;2023-06-01T06:55:13;11.70;99.90
5429;DHT22;2737;52.386;9.980;2023-06-01T06:57:40;11.70;99.90
5429;DHT22;2737;52.386;9.980;2023-06-01T07:00:08;11.80;99.90
5429;DHT22;2737;52.386;9.980;2023-06-01T07:02:40;11.90;99.90
5429;DHT22;2737;52.386;9.980;2023-06-01T07:05:07;12.00;99.90
5429;DHT22;2737;52.386;9.980;2023-06-01T07:07:36;11.90;99.90
5429;DHT22;2737;52.386;9.980;2023-06-01T07:10:04;11.90;99.90
5429;DHT22;2737;52.386;9.980;2023-06-01T07:12:33;12.00;99.90
5429;DHT22;2737;52.386;9.980;2023-06-01T07:15:00;11.90;99.90
5429;DHT22;2737;52.386;9.980;2023-06-01T07:17:28;11.90;99.90
5429;DHT22;2737;52.386;9.980;2023-06-01T07:19:55;12.00;99.90
5429;DHT22;2737;52.386;9.980;2023-06-01T07:22:22;12.00;99.90
5429;DHT22;2737;52.386;9.980;2023-06-01T07:24:49;12.00;99.90
5429;DHT22;2737;52.386;9.980;2023-06-01T07:27:16;12.00;99.90
5429;DHT22;2737;52.386;9.980;2023-06-01T07:29:46;12.00;99.90
5429;DHT22;2737;52.386;9.980;2023-06-01T07:32:14;12.10;99.90
5429;DHT22;2737;52.386;9.980;2023-06-01T07:34:41;12.20;99.90
5429;DHT22;2737;52.386;9.980;2023-06-01T07:37:08;12.20;99.90
5429;DHT22;2737;52.386;9.980;2023-06-01T07:39:35;12.10;99.90
5429;DHT22;2737;52.386;9.980;2023-06-01T07:42:03;12.10;99.90
5429;DHT22;2737;52.386;9.980;2023-06-01T07:44:30;12.10;99.90
5429;DHT22;2737;52.386;9.980;2023-06-01T07:46:58;12.20;99.90
5429;DHT22;2737;52.386;9.980;2023-06-01T07:49:25;12.30;99.90
5429;DHT22;2737;52.386;9.980;2023-06-01T07:51:52;12.40;99.90
5429;DHT22;2737;52.386;9.980;2023-06-01T07:54:20;12.60;99.90
5429;DHT22;2737;52.386;9.980;2023-06-01T07:56:47;12.40;99.90
5429;DHT22;2737;52.386;9.980;2023-06-01T07:59:14;12.50;99.90
5429;DHT22;2737;52.386;9.980;2023-06-01T08:01:41;12.40;99.90
5429;DHT22;2737;52.386;9.980;2023-06-01T08:04:09;12.60;99.90
5429;DHT22;2737;52.386;9.980;2023-06-01T08:06:37;12.50;99.90
5429;DHT22;2737;52.386;9.980;2023-06-01T08:09:04;12.60;99.90
5429;DHT22;2737;52.386;9.980;2023-06-01T08:11:31;12.60;99.90
5429;DHT22;2737;52.386;9.980;2023-06-01T08:13:58;12.50;99.90
5429;DHT22;2737;52.386;9.980;2023-06-01T08:16:28;12.50;99.90
5429;DHT22;2737;52.386;9.980;2023-06-01T08:18:56;12.70;99.90
5429;DHT22;2737;52.386;9.980;2023-06-01T08:21:25;12.60;99.90
5429;DHT22;2737;52.386;9.980;2023-06-01T08:23:53;12.50;99.90
5429;DHT22;2737;52.386;9.980;2023-06-01T08:26:22;12.60;99.90
5429;DHT22;2737;52.386;9.980;2023-06-01T08:28:49;12.70;99.90
5429;DHT22;2737;52.386;9.980;2023-06-01T08:31:19;12.70;99.90
5429;DHT22;2737;52.386;9.980;2023-06-01T08:33:46;12.60;99.90
5429;DHT22;2737;52.386;9.980;2023-06-01T08:36:13;12.50;99.90
5429;DHT22;2737;52.386;9.980;2023-06-01T08:38:42;12.60;99.90
5429;DHT22;2737;52.386;9.980;2023-06-01T08:41:14;12.60;99.90
5429;DHT22;2737;52.386;9.980;2023-06-01T08:43:44;12.60;99.90
5429;DHT22;2737;52.386;9.980;2023-06-01T08:46:14;12.70;99.90
5429;DHT22;2737;52.386;9.980;2023-06-01T08:48:42;12.70;99.90
5429;DHT22;2737;52.386;9.980;2023-06-01T08:51:10;12.80;99.90
5429;DHT22;2737;52.386;9.980;2023-06-01T08:53:38;12.80;99.90
5429;DHT22;2737;52.386;9.980;2023-06-01T08:56:09;12.80;99.90
5429;DHT22;2737;52.386;9.980;2023-06-01T08:58:36;12.70;99.90
5429;DHT22;2737;52.386;9.980;2023-06-01T09:01:04;12.90;99.90
5429;DHT22;2737;52.386;9.980;2023-06-01T09:03:31;12.80;99.90
5429;DHT22;2737;52.386;9.980;2023-06-01T09:05:58;12.80;99.90
5429;DHT22;2737;52.386;9.980;2023-06-01T09:08:25;12.80;99.90
5429;DHT22;2737;52.386;9.980;2023-06-01T09:10:52;12.80;99.90
5429;DHT22;2737;52.386;9.980;2023-06-01T09:13:34;12.90;99.90
5429;DHT22;2737;52.386;9.980;2023-06-01T09:16:02;12.60;99.90
5429;DHT22;2737;52.386;9.980;2023-06-01T09:18:29;12.80;99.90
5429;DHT22;2737;52.386;9.980;2023-06-01T09:21:09;12.90;99.90
5429;DHT22;2737;52.386;9.980;2023-06-01T09:23:37;13.00;99.90
5429;DHT22;2737;52.386;9.980;2023-06-01T09:26:05;13.10;99.90
5429;DHT22;2737;52.386;9.980;2023-06-01T09:28:54;13.00;99.90
5429;DHT22;2737;52.386;9.980;2023-06-01T09:31:38;12.90;99.90
5429;DHT22;2737;52.386;9.980;2023-06-01T09:34:05;12.90;99.90
5429;DHT22;2737;52.386;9.980;2023-06-01T09:36:33;13.00;99.90
5429;DHT22;2737;52.386;9.980;2023-06-01T09:39:03;13.00;99.90
5429;DHT22;2737;52.386;9.980;2023-06-01T09:41:44;13.10;99.90
5429;DHT22;2737;52.386;9.980;2023-06-01T09:44:14;13.00;99.90
5429;DHT22;2737;52.386;9.980;2023-06-01T09:46:47;13.10;99.90
5429;DHT22;2737;52.386;9.980;2023-06-01T09:49:25;13.00;99.90
5429;DHT22;2737;52.386;9.980;2023-06-01T09:51:55;13.10;99.90
5429;DHT22;2737;52.386;9.980;2023-06-01T09:54:36;13.20;99.90
5429;DHT22;2737;52.386;9.980;2023-06-01T09:57:04;13.20;99.90
5429;DHT22;2737;52.386;9.980;2023-06-01T09:59:40;13.20;99.90
5429;DHT22;2737;52.386;9.980;2023-06-01T10:02:12;13.20;99.90
5429;DHT22;2737;52.386;9.980;2023-06-01T10:04:41;13.40;99.90
5429;DHT22;2737;52.386;9.980;2023-06-01T10:07:08;13.50;99.90
5429;DHT22;2737;52.386;9.980;2023-06-01T10:09:38;13.50;99.90
5429;DHT22;2737;52.386;9.980;2023-06-01T10:12:07;13.30;99.90
5429;DHT22;2737;52.386;9.980;2023-06-01T10:14:38;13.30;99.90
5429;DHT22;2737;52.386;9.980;2023-06-01T10:17:06;13.30;99.90
5429;DHT22;2737;52.386;9.980;2023-06-01T10:19:35;13.40;99.90
5429;DHT22;2737;52.386;9.980;2023-06-01T10:22:03;13.50;99.90
5429;DHT22;2737;52.386;9.980;2023-06-01T10:24:31;13.70;99.90
5429;DHT22;2737;52.386;9.980;2023-06-01T10:27:04;13.50;99.90
5429;DHT22;2737;52.386;9.980;2023-06-01T10:29:32;13.60;99.90
5429;DHT22;2737;52.386;9.980;2023-06-01T10:32:01;13.60;99.90
5429;DHT22;2737;52.386;9.980;2023-06-01T10:34:38;13.60;99.90
5429;DHT22;2737;52.386;9.980;2023-06-01T10:37:16;13.80;99.90
5429;DHT22;2737;52.386;9.980;2023-06-01T10:39:43;13.80;99.90
5429;DHT22;2737;52.386;9.980;2023-06-01T10:42:38;13.90;99.90
5429;DHT22;2737;52.386;9.980;2023-06-01T10:45:36;13.80;99.90
5429;DHT22;2737;52.386;9.980;2023-06-01T10:48:06;13.60;99.90
5429;DHT22;2737;52.386;9.980;2023-06-01T10:50:34;13.40;99.90
5429;DHT22;2737;52.386;9.980;2023-06-01T10:53:24;13.40;99.90
5429;DHT22;2737;52.386;9.980;2023-06-01T10:56:19;13.60;99.90
5429;DHT22;2737;52.386;9.980;2023-06-01T10:59:10;13.60;99.90
5429;DHT22;2737;52.386;9.980;2023-06-01T11:01:38;13.70;99.90
5429;DHT22;2737;52.386;9.980;2023-06-01T11:04:07;13.70;99.90
5429;DHT22;2737;52.386;9.980;2023-06-01T11:06:35;13.70;99.90
5429;DHT22;2737;52.386;9.980;2023-06-01T11:09:04;13.80;99.90
5429;DHT22;2737;52.386;9.980;2023-06-01T11:11:58;13.80;99.90
5429;DHT22;2737;52.386;9.980;2023-06-01T11:14:26;13.70;99.90
5429;DHT22;2737;52.386;9.980;2023-06-01T11:16:55;13.70;99.90
5429;DHT22;2737;52.386;9.980;2023-06-01T11:19:26;13.70;99.90
5429;DHT22;2737;52.386;9.980;2023-06-01T11:21:57;13.90;99.90
5429;DHT22;2737;52.386;9.980;2023-06-01T11:24:31;13.80;99.90
5429;DHT22;2737;52.386;9.980;2023-06-01T11:27:01;13.80;99.90
5429;DHT22;2737;52.386;9.980;2023-06-01T11:29:32;13.80;99.90
5429;DHT22;2737;52.386;9.980;2023-06-01T11:32:01;13.80;99.90
5429;DHT22;2737;52.386;9.980;2023-06-01T11:34:32;13.90;99.90
5429;DHT22;2737;52.386;9.980;2023-06-01T11:37:00;14.00;99.90
5429;DHT22;2737;52.386;9.980;2023-06-01T11:39:29;14.00;99.90
5429;DHT22;2737;52.386;9.980;2023-06-01T11:42:07;14.20;99.90
5429;DHT22;2737;52.386;9.980;2023-06-01T11:44:35;14.20;99.90
5429;DHT22;2737;52.386;9.980;2023-06-01T11:47:03;14.10;99.90
5429;DHT22;2737;52.386;9.980;2023-06-01T11:49:40;14.00;99.90
5429;DHT22;2737;52.386;9.980;2023-06-01T11:52:09;14.10;99.90
5429;DHT22;2737;52.386;9.980;2023-06-01T11:54:36;14.20;99.90
5429;DHT22;2737;52.386;9.980;2023-06-01T11:57:04;14.30;99.90
5429;DHT22;2737;52.386;9.980;2023-06-01T11:59:37;14.50;99.90
5429;DHT22;2737;52.386;9.980;2023-06-01T12:02:16;14.60;99.90
5429;DHT22;2737;52.386;9.980;2023-06-01T12:04:54;14.50;99.90
5429;DHT22;2737;52.386;9.980;2023-06-01T12:07:22;14.50;99.90
5429;DHT22;2737;52.386;9.980;2023-06-01T12:09:51;14.50;99.90
5429;DHT22;2737;52.386;9.980;2023-06-01T12:12:19;14.40;99.90
5429;DHT22;2737;52.386;9.980;2023-06-01T12:14:48;14.30;99.90
5429;DHT22;2737;52.386;9.980;2023-06-01T12:17:15;14.50;99.90
5429;DHT22;2737;52.386;9.980;2023-06-01T12:19:48;14.50;99.90
5429;DHT22;2737;52.386;9.980;2023-06-01T12:22:16;14.50;99.90
5429;DHT22;2737;52.386;9.980;2023-06-01T12:24:43;14.40;99.90
5429;DHT22;2737;52.386;9.980;2023-06-01T12:27:15;14.60;99.90
5429;DHT22;2737;52.386;9.980;2023-06-01T12:29:43;14.60;99.90
5429;DHT22;2737;52.386;9.980;2023-06-01T12:32:12;14.80;99.90
5429;DHT22;2737;52.386;9.980;2023-06-01T12:34:41;14.70;99.90
5429;DHT22;2737;52.386;9.980;2023-06-01T12:37:18;14.80;99.90
5429;DHT22;2737;52.386;9.980;2023-06-01T12:39:51;14.80;99.90
5429;DHT22;2737;52.386;9.980;2023-06-01T12:42:19;14.60;99.90
5429;DHT22;2737;52.386;9.980;2023-06-01T12:44:52;14.60;99.90
5429;DHT22;2737;52.386;9.980;2023-06-01T12:47:20;14.70;99.90
5429;DHT22;2737;52.386;9.980;2023-06-01T12:50:02;14.80;99.90
5429;DHT22;2737;52.386;9.980;2023-06-01T12:52:31;15.00;99.90
5429;DHT22;2737;52.386;9.980;2023-06-01T12:54:58;15.00;99.90
5429;DHT22;2737;52.386;9.980;2023-06-01T12:57:25;15.20;99.90
5429;DHT22;2737;52.386;9.980;2023-06-01T12:59:52;15.30;99.90
5429;DHT22;2737;52.386;9.980;2023-06-01T13:02:19;15.40;99.90
5429;DHT22;2737;52.386;9.980;2023-06-01T13:04:46;15.50;99.90
5429;DHT22;2737;52.386;9.980;2023-06-01T13:07:13;15.40;99.90
5429;DHT22;2737;52.386;9.980;2023-06-01T13:09:41;15.30;99.90
5429;DHT22;2737;52.386;9.980;2023-06-01T13:12:09;15.50;99.90
5429;DHT22;2737;52.386;9.980;2023-06-01T13:14:36;15.30;99.90
5429;DHT22;2737;52.386;9.980;2023-06-01T13:17:03;15.30;99.90
5429;DHT22;2737;52.386;9.980;2023-06-01T13:19:31;15.50;99.90
5429;DHT22;2737;52.386;9.980;2023-06-01T13:21:58;15.50;99.90
5429;DHT22;2737;52.386;9.980;2023-06-01T13:24:25;15.40;99.90
5429;DHT22;2737;52.386;9.980;2023-06-01T13:26:53;15.50;99.90
5429;DHT22;2737;52.386;9.980;2023-06-01T13:29:21;15.80;99.90
5429;DHT22;2737;52.386;9.980;2023-06-01T13:31:48;15.90;99.90
5429;DHT22;2737;52.386;9.980;2023-06-01T13:34:15;15.80;99.90
5429;DHT22;2737;52.386;9.980;2023-06-01T13:36:46;15.70;99.90
5429;DHT22;2737;52.386;9.980;2023-06-01T13:39:14;15.80;99.90
5429;DHT22;2737;52.386;9.980;2023-06-01T13:41:41;16.00;99.90
5429;DHT22;2737;52.386;9.980;2023-06-01T13:44:10;16.00;99.90
5429;DHT22;2737;52.386;9.980;2023-06-01T13:46:38;16.30;99.90
5429;DHT22;2737;52.386;9.980;2023-06-01T13:49:05;16.30;99.90
5429;DHT22;2737;52.386;9.980;2023-06-01T13:51:32;16.20;99.90
5429;DHT22;2737;52.386;9.980;2023-06-01T13:54:00;16.20;99.90
5429;DHT22;2737;52.386;9.980;2023-06-01T13:56:27;16.40;99.90
5429;DHT22;2737;52.386;9.980;2023-06-01T13:58:54;16.80;99.90
5429;DHT22;2737;52.386;9.980;2023-06-01T14:01:23;16.70;99.90
5429;DHT22;2737;52.386;9.980;2023-06-01T14:03:50;16.50;99.90
5429;DHT22;2737;52.386;9.980;2023-06-01T14:06:17;16.50;99.90
5429;DHT22;2737;52.386;9.980;2023-06-01T14:08:44;16.40;99.90
5429;DHT22;2737;52.386;9.980;2023-06-01T14:11:11;16.60;99.90
5429;DHT22;2737;52.386;9.980;2023-06-01T14:13:38;16.40;99.90
5429;DHT22;2737;52.386;9.980;2023-06-01T14:16:05;16.20;99.90
5429;DHT22;2737;52.386;9.980;2023-06-01T14:18:34;16.40;99.90
5429;DHT22;2737;52.386;9.980;2023-06-01T14:21:01;16.80;99.90
5429;DHT22;2737;52.386;9.980;2023-06-01T14:23:28;17.00;99.90
5429;DHT22;2737;52.386;9.980;2023-06-01T14:25:55;17.10;99.90
5429;DHT22;2737;52.386;9.980;2023-06-01T14:28:22;16.80;99.90
5429;DHT22;2737;52.386;9.980;2023-06-01T14:30:49;16.50;99.90
5429;DHT22;2737;52.386;9.980;2023-06-01T14:33:16;16.50;99.90
5429;DHT22;2737;52.386;9.980;2023-06-01T14:35:45;16.40;99.90
5429;DHT22;2737;52.386;9.980;2023-06-01T14:38:12;16.50;99.90
5429;DHT22;2737;52.386;9.980;2023-06-01T14:40:39;16.70;99.90
5429;DHT22;2737;52.386;9.980;2023-06-01T14:43:06;16.40;99.90
5429;DHT22;2737;52.386;9.980;2023-06-01T14:45:33;16.20;99.90
5429;DHT22;2737;52.386;9.980;2023-06-01T14:48:00;16.00;99.90
5429;DHT22;2737;52.386;9.980;2023-06-01T14:50:27;16.00;99.90
5429;DHT22;2737;52.386;9.980;2023-06-01T14:52:55;16.10;99.90
5429;DHT22;2737;52.386;9.980;2023-06-01T14:55:25;16.30;99.90
5429;DHT22;2737;52.386;9.980;2023-06-01T14:57:52;16.10;99.90
5429;DHT22;2737;52.386;9.980;2023-06-01T15:00:19;16.10;99.90
5429;DHT22;2737;52.386;9.980;2023-06-01T15:02:46;15.90;99.90
5429;DHT22;2737;52.386;9.980;2023-06-01T15:05:13;15.90;99.90
5429;DHT22;2737;52.386;9.980;2023-06-01T15:07:40;16.10;99.90
5429;DHT22;2737;52.386;9.980;2023-06-01T15:10:09;16.00;99.90
5429;DHT22;2737;52.386;9.980;2023-06-01T15:12:36;16.10;99.90
5429;DHT22;2737;52.386;9.980;2023-06-01T15:15:04;16.10;99.90
5429;DHT22;2737;52.386;9.980;2023-06-01T15:17:31;16.00;99.90
5429;DHT22;2737;52.386;9.980;2023-06-01T15:20:00;16.10;99.90
5429;DHT22;2737;52.386;9.980;2023-06-01T15:22:27;16.20;99.90
5429;DHT22;2737;52.386;9.980;2023-06-01T15:24:54;16.10;99.90
5429;DHT22;2737;52.386;9.980;2023-06-01T15:27:23;16.00;99.90
5429;DHT22;2737;52.386;9.980;2023-06-01T15:29:50;16.00;99.90
5429;DHT22;2737;52.386;9.980;2023-06-01T15:32:17;15.90;99.90
5429;DHT22;2737;52.386;9.980;2023-06-01T15:34:44;15.90;99.90
5429;DHT22;2737;52.386;9.980;2023-06-01T15:37:12;15.80;99.90
5429;DHT22;2737;52.386;9.980;2023-06-01T15:39:39;15.70;99.90
5429;DHT22;2737;52.386;9.980;2023-06-01T15:42:08;15.80;99.90
5429;DHT22;2737;52.386;9.980;2023-06-01T15:44:38;16.00;99.90
5429;DHT22;2737;52.386;9.980;2023-06-01T15:47:06;15.90;99.90
5429;DHT22;2737;52.386;9.980;2023-06-01T15:49:33;16.20;99.90
5429;DHT22;2737;52.386;9.980;2023-06-01T15:52:00;15.70;99.90
5429;DHT22;2737;52.386;9.980;2023-06-01T15:54:30;15.50;99.90
5429;DHT22;2737;52.386;9.980;2023-06-01T15:56:57;15.70;99.90
5429;DHT22;2737;52.386;9.980;2023-06-01T15:59:24;15.50;99.90
5429;DHT22;2737;52.386;9.980;2023-06-01T16:01:53;15.60;99.90
5429;DHT22;2737;52.386;9.980;2023-06-01T16:04:20;15.80;99.90
5429;DHT22;2737;52.386;9.980;2023-06-01T16:06:47;15.40;99.90
5429;DHT22;2737;52.386;9.980;2023-06-01T16:09:15;15.40;99.90
5429;DHT22;2737;52.386;9.980;2023-06-01T16:11:42;15.50;99.90
5429;DHT22;2737;52.386;9.980;2023-06-01T16:14:09;15.30;99.90